createdAt,value
2017-09-15T00:00:55.921Z,17.07
2017-09-15T00:03:23.658Z,17.40
2017-09-15T00:05:51.451Z,16.20
2017-09-15T00:08:19.891Z,16.93
2017-09-15T00:10:50.608Z,16.33
2017-09-15T00:13:19.002Z,17.63
2017-09-15T00:15:47.951Z,16.63
2017-09-15T00:18:15.777Z,16.80
2017-09-15T00:20:43.561Z,17.53
2017-09-15T00:23:11.368Z,16.23
2017-09-15T00:25:39.864Z,15.70
2017-09-15T00:28:08.413Z,16.30
2017-09-15T00:30:36.184Z,15.33
2017-09-15T00:33:03.996Z,17.13
2017-09-15T00:35:31.845Z,16.50
2017-09-15T00:37:59.652Z,17.50
2017-09-15T00:40:27.375Z,16.33
2017-09-15T00:42:55.169Z,15.07
2017-09-15T00:45:22.895Z,15.93
2017-09-15T00:47:50.614Z,16.20
2017-09-15T00:50:18.352Z,21.30
2017-09-15T00:52:46.132Z,19.50
2017-09-15T00:55:13.896Z,18.60
2017-09-15T00:57:42.468Z,16.70
2017-09-15T01:00:11.009Z,15.43
2017-09-15T01:02:38.827Z,15.20
2017-09-15T01:05:07.395Z,16.80
2017-09-15T01:07:35.157Z,16.07
2017-09-15T01:10:02.954Z,15.90
2017-09-15T01:12:31.493Z,17.23
2017-09-15T01:14:59.205Z,20.70
2017-09-15T01:17:27.697Z,17.60
2017-09-15T01:19:55.488Z,20.00
2017-09-15T01:22:23.208Z,19.57
2017-09-15T01:24:50.919Z,20.03
2017-09-15T01:27:18.725Z,19.33
2017-09-15T01:29:46.505Z,19.73
2017-09-15T01:32:15.043Z,19.43
2017-09-15T01:34:42.877Z,19.50
2017-09-15T01:37:10.675Z,18.40
2017-09-15T01:39:38.455Z,18.57
2017-09-15T01:42:06.266Z,19.40
2017-09-15T01:44:34.040Z,18.00
2017-09-15T01:47:01.864Z,16.97
2017-09-15T01:49:29.601Z,17.90
2017-09-15T01:51:57.386Z,20.00
2017-09-15T01:54:25.160Z,18.70
2017-09-15T01:56:52.968Z,18.27
2017-09-15T01:59:20.697Z,17.67
2017-09-15T02:01:48.481Z,18.43
2017-09-15T02:04:16.269Z,19.50
2017-09-15T02:06:43.996Z,18.90
2017-09-15T02:09:11.712Z,18.97
2017-09-15T02:11:39.545Z,20.33
2017-09-15T02:14:07.270Z,19.20
2017-09-15T02:16:34.988Z,21.77
2017-09-15T02:19:02.794Z,19.97
2017-09-15T02:21:30.575Z,20.87
2017-09-15T02:23:58.300Z,21.07
2017-09-15T02:26:26.109Z,19.80
2017-09-15T02:28:53.872Z,20.27
2017-09-15T02:31:21.600Z,20.63
2017-09-15T02:33:49.409Z,21.50
2017-09-15T02:36:17.124Z,22.17
2017-09-15T02:38:44.907Z,20.43
2017-09-15T02:41:12.776Z,21.13
2017-09-15T02:43:40.543Z,20.07
2017-09-15T02:46:08.331Z,21.20
2017-09-15T02:48:36.137Z,21.90
2017-09-15T02:51:03.953Z,20.57
2017-09-15T02:53:31.728Z,22.85
2017-09-15T02:55:59.602Z,21.37
2017-09-15T02:58:27.324Z,20.60
2017-09-15T03:00:55.133Z,21.10
2017-09-15T03:03:22.974Z,21.40
2017-09-15T03:05:50.744Z,22.20
2017-09-15T03:08:18.495Z,21.47
2017-09-15T03:10:46.284Z,21.87
2017-09-15T03:13:14.070Z,20.67
2017-09-15T03:15:41.790Z,21.20
2017-09-15T03:18:09.668Z,21.53
2017-09-15T03:20:37.447Z,21.30
2017-09-15T03:23:06.803Z,20.60
2017-09-15T03:25:34.514Z,22.07
2017-09-15T03:28:03.010Z,22.50
2017-09-15T03:30:30.848Z,22.37
2017-09-15T03:32:58.578Z,22.67
2017-09-15T03:35:26.313Z,24.10
2017-09-15T03:37:54.122Z,23.77
2017-09-15T03:40:21.843Z,22.60
2017-09-15T03:42:49.575Z,23.27
2017-09-15T03:45:17.408Z,22.43
2017-09-15T03:47:45.133Z,22.33
2017-09-15T03:50:12.902Z,22.50
2017-09-15T03:52:40.703Z,21.77
2017-09-15T03:55:08.424Z,22.23
2017-09-15T03:57:36.150Z,21.70
2017-09-15T04:00:04.730Z,19.90
2017-09-15T04:02:32.449Z,22.60
2017-09-15T04:05:00.342Z,20.63
2017-09-15T04:07:28.069Z,20.23
2017-09-15T04:09:56.426Z,20.47
2017-09-15T04:12:24.155Z,19.80
2017-09-15T04:14:51.913Z,20.40
2017-09-15T04:17:19.697Z,19.80
2017-09-15T04:19:47.513Z,21.00
2017-09-15T04:22:15.325Z,22.00
2017-09-15T04:24:43.115Z,21.90
2017-09-15T04:27:11.175Z,20.70
2017-09-15T04:29:39.047Z,20.47
2017-09-15T04:32:06.838Z,20.53
2017-09-15T04:34:34.777Z,21.50
2017-09-15T04:37:12.179Z,21.93
2017-09-15T04:39:40.877Z,22.20
2017-09-15T04:42:08.621Z,21.83
2017-09-15T04:44:36.400Z,21.70
2017-09-15T04:47:05.005Z,21.40
2017-09-15T04:49:33.006Z,22.23
2017-09-15T04:52:00.737Z,20.00
2017-09-15T04:54:28.548Z,18.80
2017-09-15T04:56:56.370Z,21.27
2017-09-15T04:59:24.192Z,21.60
2017-09-15T05:01:52.026Z,22.27
2017-09-15T05:04:19.769Z,21.47
2017-09-15T05:06:47.633Z,22.80
2017-09-15T05:09:15.842Z,20.90
2017-09-15T05:11:43.858Z,22.20
2017-09-15T05:14:13.356Z,22.47
2017-09-15T05:16:41.951Z,22.40
2017-09-15T05:19:10.642Z,21.90
2017-09-15T05:21:41.228Z,22.57
2017-09-15T05:24:09.025Z,22.97
2017-09-15T05:26:36.802Z,23.73
2017-09-15T05:29:04.606Z,22.83
2017-09-15T05:31:32.448Z,23.37
2017-09-15T05:34:00.342Z,22.53
2017-09-15T05:36:28.105Z,23.20
2017-09-15T05:38:56.774Z,24.73
2017-09-15T05:41:24.506Z,24.07
2017-09-15T05:43:52.339Z,23.53
2017-09-15T05:46:20.301Z,23.80
2017-09-15T05:48:48.119Z,23.37
2017-09-15T05:51:15.874Z,23.10
2017-09-15T05:53:43.757Z,23.20
2017-09-15T05:56:11.546Z,24.80
2017-09-15T05:58:40.088Z,21.43
2017-09-15T06:01:07.823Z,22.20
2017-09-15T06:03:39.234Z,22.83
2017-09-15T06:06:07.106Z,22.80
2017-09-15T06:08:36.567Z,22.10
2017-09-15T06:11:06.510Z,21.50
2017-09-15T06:13:34.692Z,17.87
2017-09-15T06:16:02.616Z,17.73
2017-09-15T06:18:30.464Z,17.60
2017-09-15T06:20:58.194Z,17.53
2017-09-15T06:23:25.987Z,16.37
2017-09-15T06:25:54.349Z,16.23
2017-09-15T06:28:22.088Z,13.90
2017-09-15T06:30:49.919Z,15.33
2017-09-15T06:33:17.742Z,15.43
2017-09-15T06:35:47.438Z,15.20
2017-09-15T06:38:15.231Z,14.00
2017-09-15T06:40:42.943Z,14.40
2017-09-15T06:43:11.687Z,14.70
2017-09-15T06:45:39.472Z,13.60
2017-09-15T06:48:08.051Z,15.00
2017-09-15T06:50:35.933Z,12.00
2017-09-15T06:53:05.309Z,10.87
2017-09-15T06:55:51.406Z,11.07
2017-09-15T06:58:21.170Z,9.90
2017-09-15T07:00:56.435Z,10.13
2017-09-15T07:03:24.288Z,8.70
2017-09-15T07:05:53.834Z,9.90
2017-09-15T07:08:27.446Z,9.03
2017-09-15T07:10:55.281Z,9.20
2017-09-15T07:13:23.906Z,8.43
2017-09-15T07:15:52.463Z,9.60
2017-09-15T07:18:20.250Z,9.03
2017-09-15T07:20:50.054Z,9.37
2017-09-15T07:23:17.851Z,9.53
2017-09-15T07:25:46.207Z,10.07
2017-09-15T07:28:13.980Z,9.97
2017-09-15T07:30:41.852Z,11.30
2017-09-15T07:33:09.610Z,9.73
2017-09-15T07:35:38.503Z,10.07
2017-09-15T07:38:06.291Z,10.90
2017-09-15T07:40:34.126Z,9.53
2017-09-15T07:43:01.946Z,10.40
2017-09-15T07:45:29.702Z,11.50
2017-09-15T07:47:57.497Z,10.80
2017-09-15T07:50:25.307Z,11.03
2017-09-15T07:52:53.126Z,10.50
2017-09-15T07:55:20.907Z,10.87
2017-09-15T07:57:48.841Z,11.17
2017-09-15T08:00:16.654Z,11.07
2017-09-15T08:02:44.396Z,10.73
2017-09-15T08:05:12.731Z,10.17
2017-09-15T08:07:40.601Z,12.57
2017-09-15T08:10:09.137Z,10.90
2017-09-15T08:12:36.908Z,10.90
2017-09-15T08:15:05.315Z,10.63
2017-09-15T08:17:33.383Z,12.13
2017-09-15T08:20:01.110Z,11.13
2017-09-15T08:22:29.335Z,11.60
2017-09-15T08:24:57.280Z,10.90
2017-09-15T08:27:25.070Z,10.40
2017-09-15T08:29:52.794Z,10.70
2017-09-15T08:32:20.842Z,12.47
2017-09-15T08:34:49.384Z,12.43
2017-09-15T08:37:17.261Z,12.70
2017-09-15T08:39:45.102Z,11.60
2017-09-15T08:42:20.622Z,12.27
2017-09-15T08:45:01.064Z,12.40
2017-09-15T08:47:29.866Z,12.47
2017-09-15T08:49:57.596Z,12.40
2017-09-15T08:52:25.547Z,13.70
2017-09-15T08:54:54.338Z,12.20
2017-09-15T08:57:22.744Z,12.40
2017-09-15T08:59:50.473Z,13.87
2017-09-15T09:02:18.360Z,12.70
2017-09-15T09:04:46.082Z,12.63
2017-09-15T09:07:13.844Z,11.63
2017-09-15T09:09:41.689Z,13.10
2017-09-15T09:12:10.192Z,12.87
2017-09-15T09:14:37.992Z,11.43
2017-09-15T09:17:05.858Z,11.63
2017-09-15T09:19:34.391Z,14.33
2017-09-15T09:22:02.219Z,13.47
2017-09-15T09:24:29.965Z,11.00
2017-09-15T09:26:58.521Z,11.40
2017-09-15T09:29:26.318Z,11.97
2017-09-15T09:31:54.116Z,11.60
2017-09-15T09:34:22.630Z,12.10
2017-09-15T09:36:50.361Z,10.57
2017-09-15T09:39:18.176Z,10.20
2017-09-15T09:41:45.940Z,7.90
2017-09-15T09:44:13.739Z,7.43
2017-09-15T09:46:41.929Z,7.17
2017-09-15T09:49:11.128Z,5.77
2017-09-15T09:51:39.668Z,6.10
2017-09-15T09:54:07.443Z,6.60
2017-09-15T09:56:35.253Z,6.63
2017-09-15T09:59:03.101Z,6.20
2017-09-15T10:01:30.958Z,7.23
2017-09-15T10:03:58.737Z,6.53
2017-09-15T10:06:26.466Z,8.23
2017-09-15T10:08:54.280Z,7.27
2017-09-15T10:11:22.068Z,9.70
2017-09-15T10:13:49.785Z,9.80
2017-09-15T10:16:17.631Z,10.60
2017-09-15T10:18:45.378Z,10.00
2017-09-15T10:21:48.505Z,11.53
2017-09-15T10:24:16.242Z,13.20
2017-09-15T10:26:44.046Z,13.90
2017-09-15T10:29:11.784Z,12.53
2017-09-15T10:31:39.576Z,12.07
2017-09-15T10:34:07.312Z,11.63
2017-09-15T10:36:35.146Z,13.33
2017-09-15T10:39:03.669Z,13.70
2017-09-15T10:41:31.404Z,16.97
2017-09-15T10:43:59.323Z,16.67
2017-09-15T10:46:27.101Z,17.13
2017-09-15T10:48:54.895Z,17.53
2017-09-15T10:51:23.489Z,18.13
2017-09-15T10:53:51.235Z,23.00
2017-09-15T10:56:18.957Z,21.00
2017-09-15T10:58:52.453Z,20.80
2017-09-15T11:01:20.206Z,22.80
2017-09-15T11:03:47.964Z,23.40
2017-09-15T11:06:15.701Z,23.70
2017-09-15T11:08:44.258Z,22.30
2017-09-15T11:11:12.059Z,22.33
2017-09-15T11:13:39.889Z,23.13
2017-09-15T11:16:08.398Z,19.83
2017-09-15T11:18:36.982Z,22.20
2017-09-15T11:21:04.708Z,22.90
2017-09-15T11:23:32.570Z,25.20
2017-09-15T11:26:00.379Z,23.77
2017-09-15T11:28:28.165Z,21.63
2017-09-15T11:30:56.730Z,22.87
2017-09-15T11:33:24.508Z,22.43
2017-09-15T11:35:52.297Z,25.97
2017-09-15T11:38:21.131Z,28.03
2017-09-15T11:40:48.877Z,28.67
2017-09-15T11:43:16.688Z,34.60
2017-09-15T11:45:45.248Z,35.63
2017-09-15T11:48:13.009Z,36.30
2017-09-15T11:50:40.818Z,34.20
2017-09-15T11:53:08.607Z,32.43
2017-09-15T11:55:36.393Z,31.17
2017-09-15T11:58:04.185Z,33.67
2017-09-15T12:00:31.996Z,31.00
2017-09-15T12:02:59.732Z,28.57
2017-09-15T12:05:27.477Z,30.80
2017-09-15T12:07:55.392Z,32.70
2017-09-15T12:10:23.129Z,32.80
2017-09-15T12:12:51.122Z,29.47
2017-09-15T12:15:18.867Z,31.47
2017-09-15T12:17:46.690Z,30.97
2017-09-15T12:20:14.489Z,30.87
2017-09-15T12:22:42.232Z,30.33
2017-09-15T12:25:10.035Z,28.60
2017-09-15T12:27:37.807Z,30.40
2017-09-15T12:30:05.620Z,28.83
2017-09-15T12:32:34.171Z,26.80
2017-09-15T12:35:01.960Z,25.93
2017-09-15T12:37:29.810Z,28.13
2017-09-15T12:39:57.549Z,25.27
2017-09-15T12:42:25.281Z,24.87
2017-09-15T12:44:53.071Z,25.40
2017-09-15T12:47:20.805Z,25.97
2017-09-15T12:49:48.537Z,24.40
2017-09-15T12:52:17.080Z,24.90
2017-09-15T12:54:44.822Z,24.83
2017-09-15T12:57:13.385Z,22.73
2017-09-15T12:59:41.165Z,24.30
2017-09-15T13:02:08.949Z,18.20
2017-09-15T13:04:37.506Z,21.70
2017-09-15T13:07:05.228Z,22.87
2017-09-15T13:09:32.988Z,21.10
2017-09-15T13:14:33.631Z,21.70
2017-09-15T13:17:02.507Z,19.03
2017-09-15T13:19:30.250Z,18.10
2017-09-15T13:21:58.069Z,17.00
2017-09-15T13:24:25.885Z,15.30
2017-09-15T13:26:53.646Z,17.53
2017-09-15T13:29:21.374Z,15.03
2017-09-15T13:31:49.233Z,13.97
2017-09-15T13:34:17.015Z,12.43
2017-09-15T13:36:44.756Z,11.67
2017-09-15T13:39:12.545Z,12.43
2017-09-15T13:41:40.370Z,11.27
2017-09-15T13:44:08.110Z,13.10
2017-09-15T13:46:35.910Z,12.40
2017-09-15T13:49:04.396Z,10.73
2017-09-15T13:51:32.143Z,12.33
2017-09-15T13:53:59.973Z,12.30
2017-09-15T13:56:27.738Z,12.10
2017-09-15T13:58:55.487Z,13.40
2017-09-15T14:01:23.287Z,12.87
2017-09-15T14:03:51.065Z,13.10
2017-09-15T14:06:18.870Z,12.70
2017-09-15T14:08:47.351Z,12.47
2017-09-15T14:11:15.896Z,12.20
2017-09-15T14:13:43.804Z,12.70
2017-09-15T14:16:11.618Z,13.33
2017-09-15T14:18:39.349Z,14.00
2017-09-15T14:21:07.912Z,13.47
2017-09-15T14:23:35.716Z,11.87
2017-09-15T14:26:03.487Z,13.60
2017-09-15T14:28:31.206Z,12.37
2017-09-15T14:30:59.011Z,11.80
2017-09-15T14:33:26.784Z,12.10
2017-09-15T14:35:54.551Z,11.70
2017-09-15T14:38:22.745Z,11.37
2017-09-15T14:40:50.637Z,10.90
2017-09-15T14:43:18.452Z,9.40
2017-09-15T14:45:46.180Z,9.43
2017-09-15T14:48:13.904Z,9.13
2017-09-15T14:50:41.685Z,7.07
2017-09-15T14:53:09.408Z,4.75
2017-09-15T14:55:37.278Z,3.53
2017-09-15T14:58:05.000Z,3.77
2017-09-15T15:00:32.764Z,3.53
2017-09-15T15:03:01.364Z,3.10
2017-09-15T15:05:29.151Z,2.80
2017-09-15T15:07:57.733Z,2.70
2017-09-15T15:10:25.527Z,2.30
2017-09-15T15:12:53.279Z,2.47
2017-09-15T15:15:21.857Z,2.97
2017-09-15T15:17:49.580Z,2.70
2017-09-15T15:20:17.354Z,2.70
2017-09-15T15:22:45.129Z,3.10
2017-09-15T15:25:12.999Z,2.60
2017-09-15T15:27:40.769Z,2.17
2017-09-15T15:30:08.543Z,2.23
2017-09-15T15:32:36.493Z,2.33
2017-09-15T15:35:04.229Z,2.77
2017-09-15T15:37:32.087Z,2.70
2017-09-15T15:39:59.837Z,1.93
2017-09-15T15:42:27.664Z,2.43
2017-09-15T15:44:55.406Z,2.57
2017-09-15T15:47:23.311Z,2.83
2017-09-15T15:49:52.684Z,2.07
2017-09-15T15:52:20.446Z,2.27
2017-09-15T15:54:48.196Z,2.40
2017-09-15T15:57:15.912Z,2.07
2017-09-15T15:59:43.787Z,2.60
2017-09-15T16:02:11.600Z,2.40
2017-09-15T16:04:39.329Z,2.20
2017-09-15T16:07:07.136Z,2.30
2017-09-15T16:09:34.997Z,2.23
2017-09-15T16:12:02.738Z,2.10
2017-09-15T16:14:30.634Z,2.00
2017-09-15T16:16:58.352Z,2.20
2017-09-15T16:19:26.138Z,2.07
2017-09-15T16:21:53.960Z,2.13
2017-09-15T16:24:21.667Z,2.00
2017-09-15T16:26:49.452Z,2.10
2017-09-15T16:29:18.058Z,2.07
2017-09-15T16:31:46.557Z,1.70
2017-09-15T16:34:15.735Z,1.63
2017-09-15T16:36:44.254Z,2.90
2017-09-15T16:39:17.698Z,2.30
2017-09-15T16:41:52.836Z,2.33
2017-09-15T16:44:27.104Z,1.87
2017-09-15T16:47:00.438Z,2.30
2017-09-15T16:49:34.605Z,1.73
2017-09-15T16:52:02.380Z,1.80
2017-09-15T16:54:30.776Z,3.00
2017-09-15T16:56:58.647Z,3.63
2017-09-15T16:59:26.460Z,2.13
2017-09-15T17:01:57.460Z,2.30
2017-09-15T17:04:25.264Z,2.63
2017-09-15T17:06:53.049Z,1.60
2017-09-15T17:09:20.869Z,2.00
2017-09-15T17:11:48.646Z,2.40
2017-09-15T17:14:17.284Z,2.27
2017-09-15T17:16:45.856Z,1.50
2017-09-15T17:19:14.398Z,2.60
2017-09-15T17:21:42.233Z,2.07
2017-09-15T17:24:11.757Z,3.33
2017-09-15T17:26:39.567Z,2.03
2017-09-15T17:29:07.348Z,2.47
2017-09-15T17:31:35.215Z,1.90
2017-09-15T17:34:04.847Z,2.00
2017-09-15T17:36:50.336Z,3.50
2017-09-15T17:39:26.261Z,1.93
2017-09-15T17:41:54.025Z,2.13
2017-09-15T17:44:21.838Z,2.00
2017-09-15T17:46:49.807Z,2.63
2017-09-15T17:49:17.594Z,2.63
2017-09-15T17:51:46.900Z,2.50
2017-09-15T17:54:14.749Z,2.27
2017-09-15T17:56:42.567Z,2.30
2017-09-15T17:59:16.214Z,2.90
2017-09-15T18:01:46.452Z,3.97
2017-09-15T18:04:16.222Z,3.00
2017-09-15T18:06:48.336Z,3.73
2017-09-15T18:09:16.171Z,2.47
2017-09-15T18:11:43.912Z,3.27
2017-09-15T18:14:11.826Z,3.00
2017-09-15T18:16:41.429Z,2.70
2017-09-15T18:19:09.230Z,2.90
2017-09-15T18:21:38.913Z,2.53
2017-09-15T18:24:06.749Z,2.30
2017-09-15T18:26:35.226Z,2.20
2017-09-15T18:29:03.307Z,3.80
2017-09-15T18:31:31.075Z,2.57
2017-09-15T18:33:59.561Z,2.83
2017-09-15T18:36:27.320Z,2.80
2017-09-15T18:38:55.061Z,2.60
2017-09-15T18:41:22.787Z,2.90
2017-09-15T18:43:59.729Z,3.43
2017-09-15T18:46:27.692Z,4.07
2017-09-15T18:48:56.310Z,3.43
2017-09-15T18:51:24.089Z,3.70
2017-09-15T18:53:51.880Z,3.20
2017-09-15T18:56:21.100Z,6.80
2017-09-15T18:58:48.920Z,2.77
2017-09-15T19:01:16.715Z,2.50
2017-09-15T19:03:44.626Z,3.07
2017-09-15T19:06:13.002Z,2.57
2017-09-15T19:08:49.924Z,2.63
2017-09-15T19:11:20.186Z,2.67
2017-09-15T19:13:48.711Z,2.63
2017-09-15T19:16:17.253Z,4.33
2017-09-15T19:18:46.619Z,3.47
2017-09-15T19:21:15.024Z,2.80
2017-09-15T19:23:47.048Z,3.23
2017-09-15T19:26:17.964Z,2.63
2017-09-15T19:28:57.935Z,3.10
2017-09-15T19:31:28.916Z,3.60
2017-09-15T19:34:00.505Z,3.00
2017-09-15T19:36:29.781Z,3.57
2017-09-15T19:38:59.087Z,3.50
2017-09-15T19:41:28.268Z,3.97
2017-09-15T19:43:56.334Z,3.00
2017-09-15T19:46:25.261Z,3.53
2017-09-15T19:48:53.365Z,3.20
2017-09-15T19:51:22.210Z,3.37
2017-09-15T19:53:50.923Z,3.63
2017-09-15T19:56:18.762Z,4.30
2017-09-15T19:58:46.496Z,3.60
2017-09-15T20:01:17.421Z,3.50
2017-09-15T20:03:45.367Z,3.70
2017-09-15T20:06:15.495Z,4.23
2017-09-15T20:08:43.398Z,3.77
2017-09-15T20:11:11.194Z,6.00
2017-09-15T20:13:39.012Z,4.10
2017-09-15T20:16:22.444Z,3.40
2017-09-15T20:18:50.269Z,4.00
2017-09-15T20:21:19.188Z,3.97
2017-09-15T20:23:47.000Z,3.83
2017-09-15T20:26:15.507Z,4.97
2017-09-15T20:28:44.068Z,4.00
2017-09-15T20:33:45.808Z,4.03
2017-09-15T20:36:13.468Z,4.80
2017-09-15T20:38:41.190Z,4.50
2017-09-15T20:41:10.773Z,4.93
2017-09-15T20:43:38.736Z,5.00
2017-09-15T20:46:06.435Z,4.80
2017-09-15T20:48:34.197Z,5.07
2017-09-15T20:51:01.878Z,6.30
2017-09-15T20:53:29.594Z,5.43
2017-09-15T20:55:57.280Z,5.73
2017-09-15T20:58:25.027Z,5.27
2017-09-15T21:00:52.689Z,4.63
2017-09-15T21:03:20.445Z,5.17
2017-09-15T21:05:48.224Z,5.83
2017-09-15T21:08:16.670Z,5.93
2017-09-15T21:10:45.448Z,5.27
2017-09-15T21:13:14.263Z,5.17
2017-09-15T21:15:42.660Z,6.47
2017-09-15T21:18:10.368Z,5.50
2017-09-15T21:20:38.135Z,6.30
2017-09-15T21:23:05.815Z,6.33
2017-09-15T21:25:34.340Z,6.20
2017-09-15T21:28:02.086Z,5.50
2017-09-15T21:30:29.850Z,6.40
2017-09-15T21:32:57.569Z,5.60
2017-09-15T21:35:25.317Z,5.50
2017-09-15T21:37:52.997Z,5.40
2017-09-15T21:40:20.812Z,5.03
2017-09-15T21:42:48.544Z,5.20
2017-09-15T21:45:16.265Z,5.30
2017-09-15T21:47:43.992Z,5.70
2017-09-15T21:50:11.666Z,6.73
2017-09-15T21:52:39.375Z,8.47
2017-09-15T21:55:07.143Z,8.67
2017-09-15T21:57:34.873Z,9.60
2017-09-15T22:00:02.635Z,10.10
2017-09-15T22:02:30.458Z,9.80
2017-09-15T22:04:58.200Z,9.30
2017-09-15T22:07:25.874Z,9.20
2017-09-15T22:09:53.706Z,10.23
2017-09-15T22:12:21.467Z,8.17
2017-09-15T22:14:49.221Z,10.30
2017-09-15T22:17:17.018Z,8.83
2017-09-15T22:19:44.710Z,10.03
2017-09-15T22:22:12.372Z,9.27
2017-09-15T22:24:40.161Z,9.20
2017-09-15T22:27:07.841Z,9.60
2017-09-15T22:29:35.566Z,8.93
2017-09-15T22:32:03.336Z,8.80
2017-09-15T22:34:31.001Z,9.70
2017-09-15T22:36:58.717Z,9.90
2017-09-15T22:39:26.466Z,8.87
2017-09-15T22:41:54.167Z,8.10
2017-09-15T22:44:22.656Z,9.13
2017-09-15T22:46:50.474Z,8.67
2017-09-15T22:49:18.190Z,7.57
2017-09-15T22:51:45.925Z,6.83
2017-09-15T22:54:37.320Z,7.70
2017-09-15T22:57:05.059Z,7.27
2017-09-15T22:59:32.775Z,7.57
2017-09-15T23:02:00.517Z,7.17
2017-09-15T23:04:28.237Z,7.63
2017-09-15T23:06:56.712Z,8.00
2017-09-15T23:09:25.294Z,8.17
2017-09-15T23:11:53.736Z,7.17
2017-09-15T23:14:21.460Z,7.13
2017-09-15T23:16:49.278Z,7.00
2017-09-15T23:19:17.026Z,7.00
2017-09-15T23:21:44.696Z,8.27
2017-09-15T23:24:12.387Z,8.33
2017-09-15T23:26:40.131Z,8.13
2017-09-15T23:29:07.814Z,7.30
2017-09-15T23:31:35.560Z,7.40
2017-09-15T23:34:03.230Z,7.70
2017-09-15T23:36:30.947Z,7.60
2017-09-15T23:38:58.755Z,6.90
2017-09-15T23:41:26.421Z,6.97
2017-09-15T23:43:54.138Z,7.60
2017-09-15T23:46:22.751Z,7.53
2017-09-15T23:48:50.502Z,7.77
2017-09-15T23:51:18.229Z,8.00
2017-09-15T23:53:46.063Z,7.87
2017-09-15T23:56:13.784Z,8.93
2017-09-15T23:58:41.505Z,7.43
